Terminal Aerodrome Forecast
Issued by NWS Cleveland, OH

Home | Current Version | Previous Version | Graphics & Text | Print | Product List | Glossary On
Versions: 1 2 3 4 5 6 7 8 9 10 11 12 13 14 15 16 17 18 19
000
FTUS41 KCLE 151725
TAFTOL
TAF
KTOL 151725Z 1518/1618 14009KT 3SM -SN SCT012 OVC035
      TEMPO 1518/1521 1SM -SN BKN012
     FM152200 17006KT 4SM -SN OVC010
     FM152300 18006KT P6SM VCSH OVC010
     FM160200 24008KT P6SM BKN012=

USA.gov is the U.S. government's official web portal to all federal, state and local government web resources and services.